createdAt,value
2022-08-27T00:02:18.025Z,71.51
2022-08-27T00:04:46.555Z,71.47
2022-08-27T00:07:14.369Z,71.66
2022-08-27T00:09:43.310Z,71.87
2022-08-27T00:12:11.999Z,71.87
2022-08-27T00:14:40.583Z,72.03
2022-08-27T00:17:08.509Z,72.00
2022-08-27T00:19:37.136Z,72.25
2022-08-27T00:22:06.538Z,72.39
2022-08-27T00:24:38.530Z,72.43
2022-08-27T00:27:17.362Z,72.72
2022-08-27T00:29:47.595Z,72.63
2022-08-27T00:32:16.183Z,72.95
2022-08-27T00:34:45.102Z,72.80
2022-08-27T00:37:14.444Z,72.89
2022-08-27T00:39:42.619Z,72.95
2022-08-27T00:42:10.685Z,73.01
2022-08-27T00:44:39.433Z,73.12
2022-08-27T00:47:13.859Z,73.30
2022-08-27T00:49:50.983Z,73.41
2022-08-27T00:52:26.432Z,73.48
2022-08-27T00:55:05.821Z,73.41
2022-08-27T00:57:39.050Z,73.61
2022-08-27T01:00:13.013Z,73.67
2022-08-27T01:02:42.307Z,73.80
2022-08-27T01:05:15.511Z,73.96
2022-08-27T01:07:54.094Z,73.85
2022-08-27T01:10:26.958Z,74.04
2022-08-27T01:12:56.666Z,74.15
2022-08-27T01:15:26.705Z,74.11
2022-08-27T01:17:55.593Z,74.30
2022-08-27T01:20:30.240Z,74.51
2022-08-27T01:23:13.962Z,74.50
2022-08-27T01:25:44.000Z,74.55
2022-08-27T01:28:13.819Z,74.54
2022-08-27T01:30:43.198Z,74.69
2022-08-27T01:33:14.811Z,74.94
2022-08-27T01:35:46.361Z,75.04
2022-08-27T01:38:30.291Z,75.10
2022-08-27T01:41:01.109Z,75.11
2022-08-27T01:43:31.857Z,75.14
2022-08-27T01:45:59.852Z,75.09
2022-08-27T01:48:29.418Z,75.12
2022-08-27T01:50:57.403Z,75.19
2022-08-27T01:53:26.891Z,75.28
2022-08-27T01:55:58.997Z,75.24
2022-08-27T01:58:30.525Z,75.32
2022-08-27T02:01:03.403Z,75.45
2022-08-27T02:03:32.389Z,75.68
2022-08-27T02:06:04.952Z,75.77
2022-08-27T02:08:32.837Z,75.75
2022-08-27T02:11:01.894Z,75.88
2022-08-27T02:13:30.160Z,75.91
2022-08-27T02:15:58.566Z,75.87
2022-08-27T02:18:26.827Z,76.17
2022-08-27T02:20:55.016Z,76.23
2022-08-27T02:23:22.812Z,76.31
2022-08-27T02:25:51.887Z,76.20
2022-08-27T02:28:20.876Z,76.62
2022-08-27T02:30:48.743Z,76.52
2022-08-27T02:33:16.814Z,76.68
2022-08-27T02:35:44.574Z,76.74
2022-08-27T02:38:14.251Z,76.87
2022-08-27T02:40:42.486Z,77.00
2022-08-27T02:43:15.788Z,77.04
2022-08-27T02:45:44.568Z,77.19
2022-08-27T02:48:12.613Z,77.31
2022-08-27T02:50:41.403Z,77.35
2022-08-27T02:53:10.546Z,77.61
2022-08-27T02:55:39.310Z,77.67
2022-08-27T02:58:09.754Z,77.79
2022-08-27T03:00:38.002Z,77.97
2022-08-27T03:03:06.788Z,78.02
2022-08-27T03:05:35.114Z,78.13
2022-08-27T03:08:04.857Z,78.12
2022-08-27T03:10:33.261Z,78.14
2022-08-27T03:13:01.176Z,78.09
2022-08-27T03:15:29.087Z,78.02
2022-08-27T03:18:16.134Z,77.98
2022-08-27T03:20:46.455Z,78.11
2022-08-27T03:23:16.195Z,77.94
2022-08-27T03:25:51.692Z,77.86
2022-08-27T03:28:29.335Z,77.94
2022-08-27T03:31:01.524Z,77.89
2022-08-27T03:33:35.729Z,77.96
2022-08-27T03:36:06.447Z,77.89
2022-08-27T03:38:36.056Z,77.87
2022-08-27T03:41:04.803Z,77.82
2022-08-27T03:43:32.727Z,77.93
2022-08-27T03:46:02.365Z,77.83
2022-08-27T03:48:32.293Z,77.71
2022-08-27T03:51:08.672Z,77.87
2022-08-27T03:53:39.806Z,77.78
2022-08-27T03:56:09.494Z,77.66
2022-08-27T03:58:39.067Z,77.53
2022-08-27T04:01:07.945Z,77.43
2022-08-27T04:03:37.943Z,77.43
2022-08-27T04:06:06.076Z,77.36
2022-08-27T04:08:34.463Z,77.29
2022-08-27T04:11:07.149Z,77.17
2022-08-27T04:13:35.052Z,77.13
2022-08-27T04:16:05.685Z,77.13
2022-08-27T04:18:34.134Z,77.21
2022-08-27T04:21:09.319Z,77.37
2022-08-27T04:23:38.839Z,77.23
2022-08-27T04:26:09.881Z,77.27
2022-08-27T04:28:39.037Z,77.51
2022-08-27T04:31:13.117Z,77.43
2022-08-27T04:33:51.040Z,77.38
2022-08-27T04:36:20.455Z,77.36
2022-08-27T04:38:49.152Z,77.46
2022-08-27T04:41:20.043Z,77.42
2022-08-27T04:44:02.385Z,77.15
2022-08-27T04:46:33.218Z,77.04
2022-08-27T04:49:07.151Z,77.01
2022-08-27T04:51:40.988Z,76.82
2022-08-27T04:54:11.167Z,76.70
2022-08-27T04:56:39.774Z,76.55
2022-08-27T04:59:10.053Z,76.48
2022-08-27T05:01:40.263Z,76.20
2022-08-27T05:04:11.093Z,75.88
2022-08-27T05:06:39.419Z,75.62
2022-08-27T05:09:07.578Z,75.55
2022-08-27T05:11:35.706Z,75.26
2022-08-27T05:14:06.702Z,74.72
2022-08-27T05:16:36.681Z,74.31
2022-08-27T05:19:08.967Z,74.11
2022-08-27T05:21:40.303Z,73.70
2022-08-27T05:24:08.372Z,73.81
2022-08-27T05:26:37.285Z,74.08
2022-08-27T05:29:06.336Z,73.76
2022-08-27T05:31:35.460Z,73.20
2022-08-27T05:34:10.627Z,72.79
2022-08-27T05:36:48.588Z,72.46
2022-08-27T05:39:17.690Z,72.28
2022-08-27T05:41:45.597Z,71.97
2022-08-27T05:44:39.640Z,71.82
2022-08-27T05:47:03.318Z,71.64
2022-08-27T05:49:32.097Z,71.47
2022-08-27T05:52:00.285Z,70.91
2022-08-27T05:54:28.134Z,70.66
2022-08-27T05:56:55.953Z,70.10
2022-08-27T05:59:42.664Z,69.74
2022-08-27T06:02:11.246Z,69.39
2022-08-27T06:04:40.520Z,68.87
2022-08-27T06:07:10.652Z,69.02
2022-08-27T06:09:39.778Z,68.65
2022-08-27T06:12:12.391Z,68.29
2022-08-27T06:14:40.579Z,67.76
2022-08-27T06:17:08.613Z,67.36
2022-08-27T06:19:36.671Z,67.17
2022-08-27T06:22:10.023Z,67.23
2022-08-27T06:24:42.957Z,66.80
2022-08-27T06:27:14.204Z,66.33
2022-08-27T06:29:42.973Z,65.93
2022-08-27T06:32:12.237Z,65.58
2022-08-27T06:34:40.913Z,65.57
2022-08-27T06:37:09.059Z,65.35
2022-08-27T06:39:39.494Z,64.80
2022-08-27T06:42:11.939Z,64.87
2022-08-27T06:44:41.688Z,64.65
2022-08-27T06:47:11.146Z,64.45
2022-08-27T06:49:41.035Z,63.78
2022-08-27T06:52:09.333Z,63.78
2022-08-27T06:54:40.408Z,63.50
2022-08-27T06:57:08.216Z,62.97
2022-08-27T06:59:38.703Z,62.48
2022-08-27T07:02:08.013Z,62.10
2022-08-27T07:04:37.704Z,62.02
2022-08-27T07:07:06.339Z,61.59
2022-08-27T07:09:34.968Z,61.24
2022-08-27T07:12:03.733Z,61.12
2022-08-27T07:14:37.077Z,60.96
2022-08-27T07:17:11.351Z,60.18
2022-08-27T07:19:45.457Z,59.95
2022-08-27T07:22:13.931Z,59.78
2022-08-27T07:24:41.900Z,59.66
2022-08-27T07:27:09.796Z,59.15
2022-08-27T07:29:37.698Z,58.97
2022-08-27T07:32:05.757Z,58.51
2022-08-27T07:34:33.648Z,57.97
2022-08-27T07:37:01.551Z,57.73
2022-08-27T07:39:29.338Z,57.80
2022-08-27T07:42:16.499Z,57.70
2022-08-27T07:44:44.425Z,57.22
2022-08-27T07:47:12.438Z,56.98
2022-08-27T07:49:41.197Z,57.08
2022-08-27T07:52:17.352Z,56.81
2022-08-27T07:54:51.632Z,56.77
2022-08-27T07:57:20.026Z,56.51
2022-08-27T07:59:48.695Z,56.30
2022-08-27T08:02:16.588Z,56.32
2022-08-27T08:04:44.835Z,56.24
2022-08-27T08:07:12.624Z,56.12
2022-08-27T08:09:40.390Z,56.05
2022-08-27T08:12:08.649Z,55.87
2022-08-27T08:14:37.038Z,55.72
2022-08-27T08:17:06.399Z,55.63
2022-08-27T08:19:39.027Z,55.63
2022-08-27T08:22:07.753Z,55.53
2022-08-27T08:24:36.621Z,55.33
2022-08-27T08:27:07.704Z,55.50
2022-08-27T08:29:36.990Z,55.40
2022-08-27T08:32:06.764Z,55.22
2022-08-27T08:34:36.200Z,55.23
2022-08-27T08:37:05.849Z,55.05
2022-08-27T08:39:35.906Z,55.15
2022-08-27T08:42:07.150Z,54.85
2022-08-27T08:44:45.959Z,54.85
2022-08-27T08:47:22.010Z,54.61
2022-08-27T08:50:02.394Z,54.41
2022-08-27T08:52:43.840Z,54.47
2022-08-27T08:55:47.720Z,54.00
2022-08-27T08:58:19.823Z,54.05
2022-08-27T09:00:54.589Z,53.79
2022-08-27T09:03:23.674Z,53.76
2022-08-27T09:06:03.127Z,53.81
2022-08-27T09:08:41.673Z,53.75
2022-08-27T09:11:25.282Z,53.63
2022-08-27T09:13:59.603Z,53.42
2022-08-27T09:16:28.200Z,53.44
2022-08-27T09:18:56.151Z,53.36
2022-08-27T09:21:51.877Z,53.39
2022-08-27T09:24:26.005Z,53.23
2022-08-27T09:26:55.085Z,53.23
2022-08-27T09:29:28.173Z,53.45
2022-08-27T09:32:05.415Z,53.20
2022-08-27T09:34:39.453Z,52.95
2022-08-27T09:37:10.542Z,52.74
2022-08-27T09:39:47.773Z,52.80
2022-08-27T09:42:24.045Z,52.69
2022-08-27T09:44:54.541Z,52.73
2022-08-27T09:47:23.303Z,52.44
2022-08-27T09:50:07.028Z,52.70
2022-08-27T09:52:51.402Z,52.53
2022-08-27T09:55:44.671Z,52.65
2022-08-27T09:58:26.826Z,52.59
2022-08-27T10:01:05.825Z,52.52
2022-08-27T10:03:34.461Z,52.37
2022-08-27T10:06:03.127Z,52.57
2022-08-27T10:08:51.062Z,52.42
2022-08-27T10:11:38.426Z,52.54
2022-08-27T10:14:21.384Z,52.49
2022-08-27T10:17:08.147Z,53.00
2022-08-27T10:19:41.561Z,52.74
2022-08-27T10:22:33.758Z,53.17
2022-08-27T10:25:30.161Z,52.96
2022-08-27T10:28:12.879Z,52.42
2022-08-27T10:31:16.681Z,51.63
2022-08-27T10:34:25.664Z,52.58
2022-08-27T10:37:13.967Z,51.92
2022-08-27T10:39:54.774Z,51.09
2022-08-27T10:42:32.365Z,50.86
2022-08-27T10:45:31.103Z,50.63
2022-08-27T10:48:24.674Z,50.28
2022-08-27T10:51:37.903Z,50.14
2022-08-27T10:54:32.791Z,49.67
2022-08-27T10:57:28.910Z,49.52
2022-08-27T11:00:14.820Z,49.47
2022-08-27T11:03:09.348Z,49.34
2022-08-27T11:05:51.181Z,49.01
2022-08-27T11:08:50.147Z,49.00
2022-08-27T11:14:54.650Z,48.43
2022-08-27T11:17:32.020Z,48.16
2022-08-27T11:20:25.047Z,48.05
2022-08-27T11:23:31.977Z,47.80
2022-08-27T11:26:04.292Z,47.65
2022-08-27T11:28:50.479Z,47.68
2022-08-27T11:31:40.990Z,47.70
2022-08-27T11:34:48.790Z,47.55
2022-08-27T11:37:51.398Z,47.67
2022-08-27T11:40:58.509Z,47.56
2022-08-27T11:43:32.541Z,47.63
2022-08-27T11:46:06.506Z,47.45
2022-08-27T11:48:43.857Z,47.30
2022-08-27T11:51:26.545Z,47.44
2022-08-27T11:53:57.965Z,47.40
2022-08-27T11:56:28.953Z,47.57
2022-08-27T11:59:08.650Z,47.59
2022-08-27T12:01:36.879Z,47.58
2022-08-27T12:04:28.624Z,47.63
2022-08-27T12:07:17.627Z,47.51
2022-08-27T12:10:19.942Z,47.51
2022-08-27T12:12:58.473Z,47.56
2022-08-27T12:15:58.848Z,47.80
2022-08-27T12:18:53.789Z,47.81
2022-08-27T12:22:27.695Z,47.83
2022-08-27T12:25:00.544Z,47.81
2022-08-27T12:27:37.119Z,47.76
2022-08-27T12:30:30.017Z,47.77
2022-08-27T12:33:00.190Z,47.82
2022-08-27T12:35:49.100Z,47.72
2022-08-27T12:38:32.662Z,47.58
2022-08-27T12:41:04.056Z,47.47
2022-08-27T12:43:38.351Z,47.47
2022-08-27T12:46:17.871Z,47.26
2022-08-27T12:48:51.958Z,47.48
2022-08-27T12:51:26.025Z,47.51
2022-08-27T12:53:54.593Z,47.25
2022-08-27T12:56:56.764Z,47.00
2022-08-27T13:00:02.369Z,46.75
2022-08-27T13:02:55.832Z,46.82
2022-08-27T13:05:25.177Z,46.61
2022-08-27T13:07:54.741Z,46.62
2022-08-27T13:10:32.957Z,46.51
2022-08-27T13:13:08.061Z,46.53
2022-08-27T13:15:42.424Z,46.49
2022-08-27T13:18:13.482Z,46.16
2022-08-27T13:20:41.827Z,46.18
2022-08-27T13:23:24.108Z,46.15
2022-08-27T13:26:24.962Z,45.96
2022-08-27T13:28:53.540Z,45.73
2022-08-27T13:31:24.753Z,45.81
2022-08-27T13:33:58.791Z,45.64
2022-08-27T13:36:35.564Z,45.55
2022-08-27T13:39:06.242Z,45.43
2022-08-27T13:41:36.887Z,45.37
2022-08-27T13:44:19.714Z,45.40
2022-08-27T13:47:00.535Z,45.12
2022-08-27T13:49:34.158Z,45.17
2022-08-27T13:52:34.147Z,44.89
2022-08-27T13:55:08.243Z,44.95
2022-08-27T13:57:49.130Z,44.97
2022-08-27T14:00:31.680Z,44.72
2022-08-27T14:03:09.957Z,44.75
2022-08-27T14:05:48.472Z,44.77
2022-08-27T14:08:20.231Z,44.70
2022-08-27T14:10:58.916Z,44.70
2022-08-27T14:13:29.003Z,44.50
2022-08-27T14:15:59.608Z,44.53
2022-08-27T14:18:57.755Z,44.49
2022-08-27T14:21:24.161Z,44.35
2022-08-27T14:23:54.179Z,44.46
2022-08-27T14:26:22.990Z,44.35
2022-08-27T14:28:52.582Z,44.23
2022-08-27T14:31:31.428Z,44.03
2022-08-27T14:34:02.565Z,44.26
2022-08-27T14:36:33.171Z,44.34
2022-08-27T14:39:02.471Z,44.34
2022-08-27T14:41:30.813Z,44.37
2022-08-27T14:44:02.211Z,44.45
2022-08-27T14:46:35.988Z,44.49
2022-08-27T14:49:25.210Z,44.42
2022-08-27T14:51:54.038Z,44.55
2022-08-27T14:54:22.807Z,44.67
2022-08-27T14:56:59.186Z,44.80
2022-08-27T14:59:27.200Z,44.76
2022-08-27T15:01:59.914Z,44.82
2022-08-27T15:04:28.646Z,44.97
2022-08-27T15:06:57.411Z,44.90
2022-08-27T15:09:28.590Z,45.06
2022-08-27T15:11:58.012Z,45.08
2022-08-27T15:14:29.310Z,45.22
2022-08-27T15:17:00.767Z,45.42
2022-08-27T15:19:30.352Z,45.19
2022-08-27T15:22:17.137Z,45.25
2022-08-27T15:24:50.987Z,45.31
2022-08-27T15:27:19.509Z,45.63
2022-08-27T15:29:50.217Z,45.60
2022-08-27T15:32:47.376Z,45.74
2022-08-27T15:35:19.940Z,45.73
2022-08-27T15:37:47.821Z,45.83
2022-08-27T15:40:18.597Z,45.84
2022-08-27T15:42:52.975Z,45.91
2022-08-27T15:45:21.889Z,45.92
2022-08-27T15:47:53.646Z,46.16
2022-08-27T15:50:28.951Z,46.24
2022-08-27T15:53:00.442Z,46.36
2022-08-27T15:55:37.838Z,46.31
2022-08-27T15:58:09.067Z,46.39
2022-08-27T16:00:37.864Z,46.43
2022-08-27T16:03:11.424Z,46.60
2022-08-27T16:05:46.178Z,46.83
2022-08-27T16:08:16.871Z,47.01
2022-08-27T16:10:47.619Z,46.95
2022-08-27T16:13:16.219Z,47.29
2022-08-27T16:15:45.831Z,47.40
2022-08-27T16:18:14.203Z,47.56
2022-08-27T16:20:45.373Z,47.77
2022-08-27T16:23:13.937Z,47.90
2022-08-27T16:26:14.777Z,48.17
2022-08-27T16:28:47.847Z,48.55
2022-08-27T16:31:16.104Z,48.90
2022-08-27T16:33:44.389Z,49.52
2022-08-27T16:36:12.575Z,50.01
2022-08-27T16:38:47.783Z,50.31
2022-08-27T16:41:15.645Z,50.78
2022-08-27T16:43:43.757Z,51.29
2022-08-27T16:46:11.831Z,51.57
2022-08-27T16:49:01.782Z,51.88
2022-08-27T16:51:35.964Z,52.43
2022-08-27T16:54:05.404Z,52.63
2022-08-27T16:56:37.699Z,52.99
2022-08-27T16:59:06.965Z,53.32
2022-08-27T17:01:35.413Z,53.78
2022-08-27T17:04:18.185Z,53.94
2022-08-27T17:06:51.893Z,54.19
2022-08-27T17:09:19.741Z,54.58
2022-08-27T17:11:57.094Z,54.72
2022-08-27T17:14:26.959Z,55.13
2022-08-27T17:16:54.833Z,55.24
2022-08-27T17:19:26.333Z,55.46
2022-08-27T17:21:55.017Z,55.60
2022-08-27T17:24:23.095Z,55.89
2022-08-27T17:26:53.959Z,56.02
2022-08-27T17:29:21.834Z,56.17
2022-08-27T17:31:49.705Z,56.40
2022-08-27T17:34:21.917Z,56.52
2022-08-27T17:36:51.889Z,56.80
2022-08-27T17:39:22.442Z,56.86
2022-08-27T17:41:53.224Z,56.97
2022-08-27T17:44:23.443Z,57.30
2022-08-27T17:46:53.298Z,57.41
2022-08-27T17:49:21.747Z,57.63
2022-08-27T17:51:55.408Z,57.65
2022-08-27T17:54:36.836Z,57.78
2022-08-27T17:57:19.674Z,57.78
2022-08-27T17:59:47.603Z,58.03
2022-08-27T18:02:28.145Z,58.15
2022-08-27T18:05:02.019Z,58.41
2022-08-27T18:07:29.904Z,58.70
2022-08-27T18:09:58.266Z,58.76
2022-08-27T18:12:27.320Z,58.86
2022-08-27T18:15:06.593Z,58.93
2022-08-27T18:17:35.686Z,59.09
2022-08-27T18:20:06.486Z,59.27
2022-08-27T18:22:35.158Z,59.37
2022-08-27T18:25:09.640Z,59.52
2022-08-27T18:27:40.202Z,59.70
2022-08-27T18:30:08.645Z,59.86
2022-08-27T18:32:36.617Z,60.27
2022-08-27T18:35:15.077Z,60.31
2022-08-27T18:37:43.043Z,60.70
2022-08-27T18:40:12.751Z,60.97
2022-08-27T18:42:41.686Z,61.11
2022-08-27T18:45:23.061Z,61.26
2022-08-27T18:47:52.878Z,61.49
2022-08-27T18:50:22.084Z,61.64
2022-08-27T18:52:52.176Z,61.80
2022-08-27T18:55:23.462Z,61.99
2022-08-27T18:57:52.072Z,62.11
2022-08-27T19:00:20.983Z,62.68
2022-08-27T19:02:52.873Z,62.67
2022-08-27T19:05:25.370Z,62.71
2022-08-27T19:07:56.840Z,62.97
2022-08-27T19:10:25.937Z,62.91
2022-08-27T19:12:54.106Z,63.22
2022-08-27T19:15:22.757Z,63.32
2022-08-27T19:17:55.517Z,63.31
2022-08-27T19:20:23.782Z,63.40
2022-08-27T19:22:52.443Z,63.52
2022-08-27T19:25:21.014Z,63.65
2022-08-27T19:27:49.465Z,63.79
2022-08-27T19:30:17.620Z,63.92
2022-08-27T19:32:54.965Z,64.36
2022-08-27T19:35:26.013Z,64.62
2022-08-27T19:37:53.855Z,64.83
2022-08-27T19:40:22.607Z,65.07
2022-08-27T19:42:51.241Z,65.35
2022-08-27T19:45:25.273Z,65.35
2022-08-27T19:47:53.632Z,65.36
2022-08-27T19:50:23.259Z,65.60
2022-08-27T19:52:52.105Z,65.61
2022-08-27T19:55:20.626Z,66.01
2022-08-27T19:57:49.877Z,66.20
2022-08-27T20:00:20.709Z,66.40
2022-08-27T20:02:50.779Z,66.26
2022-08-27T20:05:22.988Z,66.43
2022-08-27T20:07:52.830Z,66.65
2022-08-27T20:10:31.545Z,66.75
2022-08-27T20:13:05.684Z,67.09
2022-08-27T20:15:35.174Z,67.19
2022-08-27T20:18:05.090Z,67.39
2022-08-27T20:20:34.971Z,67.42
2022-08-27T20:23:05.237Z,67.67
2022-08-27T20:25:34.983Z,67.70
2022-08-27T20:28:34.953Z,67.73
2022-08-27T20:30:57.723Z,67.97
2022-08-27T20:33:27.247Z,67.90
2022-08-27T20:35:57.144Z,68.25
2022-08-27T20:38:25.186Z,68.54
2022-08-27T20:40:53.004Z,68.48
2022-08-27T20:43:23.457Z,68.56
2022-08-27T20:45:51.450Z,68.37
2022-08-27T20:48:19.717Z,68.51
2022-08-27T20:50:47.967Z,68.70
2022-08-27T20:53:15.939Z,68.84
2022-08-27T20:55:45.033Z,68.97
2022-08-27T20:58:31.462Z,69.13
2022-08-27T21:01:00.031Z,69.16
2022-08-27T21:03:29.391Z,69.30
2022-08-27T21:05:57.258Z,69.36
2022-08-27T21:08:25.631Z,69.46
2022-08-27T21:10:57.067Z,69.76
2022-08-27T21:13:27.135Z,69.58
2022-08-27T21:15:56.468Z,69.97
2022-08-27T21:18:29.498Z,69.97
2022-08-27T21:21:01.431Z,70.26
2022-08-27T21:23:30.572Z,70.55
2022-08-27T21:26:08.064Z,70.47
2022-08-27T21:28:41.965Z,70.72
2022-08-27T21:31:12.612Z,70.91
2022-08-27T21:33:40.895Z,70.98
2022-08-27T21:36:12.412Z,71.28
2022-08-27T21:38:41.287Z,71.22
2022-08-27T21:41:09.796Z,71.34
2022-08-27T21:43:38.108Z,71.49
2022-08-27T21:46:07.037Z,71.61
2022-08-27T21:48:36.153Z,71.76
2022-08-27T21:51:09.623Z,71.70
2022-08-27T21:53:37.872Z,72.01
2022-08-27T21:56:06.325Z,72.23
2022-08-27T21:58:34.776Z,72.18
2022-08-27T22:01:05.793Z,72.24
2022-08-27T22:03:36.049Z,72.40
2022-08-27T22:06:07.047Z,72.35
2022-08-27T22:08:36.124Z,72.61
2022-08-27T22:11:04.463Z,72.54
2022-08-27T22:13:33.824Z,72.74
2022-08-27T22:16:04.955Z,72.86
2022-08-27T22:18:33.312Z,73.01
2022-08-27T22:21:02.873Z,73.03
2022-08-27T22:23:31.141Z,73.12
2022-08-27T22:26:00.089Z,73.21
2022-08-27T22:28:28.042Z,73.43
2022-08-27T22:30:56.498Z,73.36
2022-08-27T22:33:24.571Z,73.46
2022-08-27T22:35:52.486Z,73.77
2022-08-27T22:38:20.312Z,73.80
2022-08-27T22:40:49.606Z,73.72
2022-08-27T22:43:17.447Z,73.82
2022-08-27T22:45:45.547Z,74.04
2022-08-27T22:48:14.886Z,74.12
2022-08-27T22:50:42.792Z,74.14
2022-08-27T22:53:12.248Z,74.24
2022-08-27T22:55:40.103Z,74.40
2022-08-27T22:58:08.062Z,74.30
2022-08-27T23:00:37.888Z,74.46
2022-08-27T23:03:10.224Z,74.58
2022-08-27T23:05:40.198Z,74.82
2022-08-27T23:08:12.169Z,75.01
2022-08-27T23:10:41.970Z,75.04
2022-08-27T23:13:11.888Z,75.02
2022-08-27T23:15:41.183Z,75.29
2022-08-27T23:18:09.166Z,75.45
2022-08-27T23:20:37.619Z,75.65
2022-08-27T23:23:08.023Z,75.54
2022-08-27T23:25:54.659Z,75.74
2022-08-27T23:28:23.545Z,75.82
2022-08-27T23:30:51.598Z,75.90
2022-08-27T23:33:20.245Z,75.84
2022-08-27T23:35:51.496Z,76.11
2022-08-27T23:38:21.217Z,76.06
2022-08-27T23:40:50.523Z,76.08
2022-08-27T23:43:19.223Z,76.28
2022-08-27T23:45:49.204Z,76.34
2022-08-27T23:48:17.008Z,76.56
2022-08-27T23:50:48.119Z,76.60
2022-08-27T23:53:16.045Z,76.56
2022-08-27T23:55:44.204Z,76.76
2022-08-27T23:58:13.462Z,76.74
